createdAt,value
2023-03-22T00:01:23.439Z,23.67
2023-03-22T00:03:52.837Z,24.50
2023-03-22T00:06:20.410Z,24.35
2023-03-22T00:08:51.269Z,25.15
2023-03-22T00:11:20.698Z,25.27
2023-03-22T00:13:48.141Z,25.38
2023-03-22T00:16:15.418Z,26.13
2023-03-22T00:18:42.321Z,24.90
2023-03-22T00:21:14.198Z,24.85
2023-03-22T00:23:41.495Z,26.52
2023-03-22T00:26:10.438Z,26.63
2023-03-22T00:28:37.612Z,25.80
2023-03-22T00:31:05.656Z,28.80
2023-03-22T00:33:33.166Z,26.70
2023-03-22T00:36:08.041Z,26.95
2023-03-22T00:38:42.765Z,26.70
2023-03-22T00:41:22.058Z,27.30
2023-03-22T00:43:51.109Z,27.42
2023-03-22T00:46:20.955Z,27.42
2023-03-22T00:48:49.132Z,27.67
2023-03-22T00:51:17.105Z,27.92
2023-03-22T00:53:44.688Z,28.38
2023-03-22T00:56:16.188Z,27.40
2023-03-22T00:58:43.838Z,29.10
2023-03-22T01:01:13.913Z,28.90
2023-03-22T01:03:43.439Z,28.92
2023-03-22T01:06:11.339Z,28.23
2023-03-22T01:08:39.447Z,29.33
2023-03-22T01:11:08.544Z,28.38
2023-03-22T01:13:41.688Z,28.70
2023-03-22T01:16:10.592Z,28.48
2023-03-22T01:18:37.559Z,28.65
2023-03-22T01:21:05.902Z,30.80
2023-03-22T01:23:32.920Z,30.15
2023-03-22T01:26:01.302Z,30.10
2023-03-22T01:28:29.001Z,29.73
2023-03-22T01:30:56.992Z,29.98
2023-03-22T01:33:23.867Z,30.20
2023-03-22T01:35:51.046Z,30.48
2023-03-22T01:38:18.019Z,30.67
2023-03-22T01:40:44.884Z,30.15
2023-03-22T01:43:17.222Z,31.42
2023-03-22T01:45:47.582Z,30.83
2023-03-22T01:48:35.452Z,30.98
2023-03-22T01:51:13.627Z,30.52
2023-03-22T01:53:52.973Z,33.22
2023-03-22T01:56:26.865Z,31.67
2023-03-22T01:58:55.461Z,32.33
2023-03-22T02:01:24.422Z,32.85
2023-03-22T02:04:07.211Z,32.47
2023-03-22T02:06:38.198Z,32.97
2023-03-22T02:09:17.362Z,32.85
2023-03-22T02:11:57.614Z,33.90
2023-03-22T02:15:19.957Z,34.92
2023-03-22T02:18:07.205Z,34.33
2023-03-22T02:21:11.493Z,34.00
2023-03-22T02:23:47.214Z,36.63
2023-03-22T02:27:00.141Z,34.55
2023-03-22T02:29:45.069Z,33.92
2023-03-22T02:32:30.527Z,36.33
2023-03-22T02:35:15.850Z,35.22
2023-03-22T02:38:20.186Z,36.35
2023-03-22T02:41:08.451Z,36.10
2023-03-22T02:44:33.159Z,35.92
2023-03-22T02:47:13.943Z,35.58
2023-03-22T02:49:56.755Z,36.70
2023-03-22T02:52:45.361Z,36.67
2023-03-22T02:55:41.786Z,36.97
2023-03-22T02:58:26.869Z,37.50
2023-03-22T03:01:05.851Z,37.25
2023-03-22T03:03:37.568Z,36.67
2023-03-22T03:06:16.516Z,38.15
2023-03-22T03:08:47.569Z,37.88
2023-03-22T03:11:14.420Z,38.05
2023-03-22T03:13:41.936Z,37.95
2023-03-22T03:16:17.251Z,39.42
2023-03-22T03:18:53.920Z,37.45
2023-03-22T03:21:36.469Z,39.47
2023-03-22T03:24:03.218Z,39.67
2023-03-22T03:26:44.618Z,40.30
2023-03-22T03:29:40.216Z,38.97
2023-03-22T03:32:35.185Z,38.55
2023-03-22T03:35:22.297Z,40.38
2023-03-22T03:38:02.976Z,39.80
2023-03-22T03:40:38.950Z,40.05
2023-03-22T03:43:07.384Z,39.60
2023-03-22T03:45:37.738Z,40.70
2023-03-22T03:48:11.745Z,41.30
2023-03-22T03:50:38.898Z,41.55
2023-03-22T03:53:06.149Z,41.38
2023-03-22T03:55:34.038Z,41.80
2023-03-22T03:58:00.882Z,41.67
2023-03-22T04:00:27.987Z,43.47
2023-03-22T04:02:54.884Z,43.10
2023-03-22T04:05:21.759Z,43.40
2023-03-22T04:07:48.627Z,43.53
2023-03-22T04:10:15.542Z,44.42
2023-03-22T04:12:42.387Z,41.92
2023-03-22T04:15:12.024Z,44.00
2023-03-22T04:17:40.220Z,43.08
2023-03-22T04:20:12.445Z,45.47
2023-03-22T04:22:40.994Z,43.83
2023-03-22T04:25:13.400Z,44.80
2023-03-22T04:27:42.072Z,43.92
2023-03-22T04:30:18.774Z,44.35
2023-03-22T04:32:47.337Z,44.30
2023-03-22T04:35:16.063Z,44.97
2023-03-22T04:37:43.231Z,44.88
2023-03-22T04:40:16.586Z,44.35
2023-03-22T04:42:45.530Z,46.10
2023-03-22T04:45:13.965Z,45.70
2023-03-22T04:47:41.073Z,43.80
2023-03-22T04:50:09.182Z,44.92
2023-03-22T04:52:36.133Z,45.00
2023-03-22T04:55:03.548Z,46.22
2023-03-22T04:57:30.443Z,47.03
2023-03-22T04:59:57.243Z,47.67
2023-03-22T05:02:24.114Z,48.15
2023-03-22T05:04:51.406Z,48.55
2023-03-22T05:07:18.342Z,46.97
2023-03-22T05:09:45.236Z,48.22
2023-03-22T05:12:12.224Z,47.33
2023-03-22T05:14:39.130Z,46.17
2023-03-22T05:17:06.576Z,47.63
2023-03-22T05:19:33.500Z,46.95
2023-03-22T05:22:02.069Z,48.58
2023-03-22T05:24:30.558Z,48.95
2023-03-22T05:27:01.034Z,49.10
2023-03-22T05:29:28.670Z,48.75
2023-03-22T05:31:55.716Z,48.08
2023-03-22T05:34:22.615Z,49.50
2023-03-22T05:36:51.488Z,49.83
2023-03-22T05:39:18.549Z,49.45
2023-03-22T05:41:46.099Z,50.63
2023-03-22T05:44:13.060Z,50.17
2023-03-22T05:46:40.009Z,49.55
2023-03-22T05:49:06.849Z,49.53
2023-03-22T05:51:36.792Z,48.47
2023-03-22T05:54:03.856Z,49.20
2023-03-22T05:56:30.813Z,50.53
2023-03-22T05:58:58.203Z,55.08
2023-03-22T06:01:25.490Z,54.95
2023-03-22T06:03:52.484Z,64.57
2023-03-22T06:06:19.555Z,57.67
2023-03-22T06:08:46.446Z,56.03
2023-03-22T06:11:13.409Z,56.42
2023-03-22T06:13:40.253Z,54.03
2023-03-22T06:16:07.953Z,53.03
2023-03-22T06:18:34.823Z,56.00
2023-03-22T06:21:02.057Z,54.85
2023-03-22T06:23:28.986Z,53.90
2023-03-22T06:25:56.124Z,56.80
2023-03-22T06:28:23.025Z,58.42
2023-03-22T06:30:49.914Z,56.22
2023-03-22T06:33:17.087Z,57.65
2023-03-22T06:35:43.972Z,55.65
2023-03-22T06:38:10.996Z,58.75
2023-03-22T06:40:38.307Z,53.75
2023-03-22T06:43:07.188Z,57.25
2023-03-22T06:45:35.905Z,57.65
2023-03-22T06:48:03.011Z,54.03
2023-03-22T06:50:31.060Z,55.08
2023-03-22T06:52:58.024Z,56.25
2023-03-22T06:55:25.301Z,58.25
2023-03-22T06:57:52.154Z,60.30
2023-03-22T07:00:19.531Z,59.47
2023-03-22T07:02:46.536Z,54.90
2023-03-22T07:05:13.390Z,56.50
2023-03-22T07:07:40.351Z,55.03
2023-03-22T07:10:08.432Z,55.47
2023-03-22T07:12:35.799Z,54.85
2023-03-22T07:15:03.579Z,55.42
2023-03-22T07:17:30.772Z,55.88
2023-03-22T07:19:57.754Z,54.50
2023-03-22T07:22:28.027Z,56.20
2023-03-22T07:24:58.219Z,53.67
2023-03-22T07:27:26.052Z,55.25
2023-03-22T07:29:53.101Z,55.40
2023-03-22T07:32:20.584Z,54.30
2023-03-22T07:34:50.679Z,55.67
2023-03-22T07:37:17.723Z,55.05
2023-03-22T07:39:45.081Z,52.13
2023-03-22T07:42:12.137Z,55.67
2023-03-22T07:44:40.106Z,54.42
2023-03-22T07:47:07.126Z,52.95
2023-03-22T07:49:34.087Z,51.95
2023-03-22T07:52:02.551Z,53.90
2023-03-22T07:54:33.870Z,51.53
2023-03-22T07:57:03.727Z,50.85
2023-03-22T07:59:31.237Z,50.13
2023-03-22T08:01:58.448Z,51.92
2023-03-22T08:04:26.099Z,51.70
2023-03-22T08:06:54.841Z,48.92
2023-03-22T08:09:21.690Z,49.72
2023-03-22T08:11:48.529Z,46.88
2023-03-22T08:14:17.098Z,50.80
2023-03-22T08:16:45.674Z,47.35
2023-03-22T08:19:12.661Z,46.42
2023-03-22T08:21:39.591Z,45.10
2023-03-22T08:24:07.368Z,49.28
2023-03-22T08:26:34.202Z,48.83
2023-03-22T08:29:01.051Z,42.05
2023-03-22T08:31:27.962Z,41.35
2023-03-22T08:33:54.980Z,42.50
2023-03-22T08:36:25.625Z,40.63
2023-03-22T08:38:53.040Z,41.03
2023-03-22T08:41:20.095Z,36.42
2023-03-22T08:43:46.881Z,37.92
2023-03-22T08:46:13.823Z,37.28
2023-03-22T08:48:41.686Z,36.58
2023-03-22T08:51:08.924Z,36.15
2023-03-22T08:53:35.994Z,36.25
2023-03-22T08:56:03.738Z,35.47
2023-03-22T08:58:30.895Z,36.30
2023-03-22T09:00:58.323Z,36.20
2023-03-22T09:03:25.280Z,35.47
2023-03-22T09:05:52.326Z,35.28
2023-03-22T09:08:20.459Z,35.40
2023-03-22T09:10:51.316Z,34.92
2023-03-22T09:13:20.100Z,35.78
2023-03-22T09:15:48.028Z,34.85
2023-03-22T09:18:16.260Z,32.50
2023-03-22T09:20:45.827Z,33.22
2023-03-22T09:23:15.506Z,32.63
2023-03-22T09:25:49.107Z,33.22
2023-03-22T09:28:17.022Z,33.03
2023-03-22T09:30:44.890Z,31.98
2023-03-22T09:33:12.117Z,41.42
2023-03-22T09:35:43.534Z,40.25
2023-03-22T09:38:12.208Z,35.42
2023-03-22T09:41:00.408Z,31.90
2023-03-22T09:43:34.278Z,30.38
2023-03-22T09:46:03.616Z,28.90
2023-03-22T09:48:43.235Z,31.95
2023-03-22T09:51:39.487Z,31.17
2023-03-22T09:54:50.408Z,30.40
2023-03-22T09:57:32.503Z,29.23
2023-03-22T10:00:31.242Z,27.48
2023-03-22T10:03:32.410Z,29.52
2023-03-22T10:06:13.311Z,28.38
2023-03-22T10:09:14.490Z,27.42
2023-03-22T10:11:56.283Z,28.08
2023-03-22T10:14:42.201Z,27.75
2023-03-22T10:17:18.937Z,23.83
2023-03-22T10:20:00.882Z,22.38
2023-03-22T10:22:35.408Z,24.63
2023-03-22T10:25:05.870Z,24.80
2023-03-22T10:27:36.108Z,22.73
2023-03-22T10:30:37.636Z,22.10
2023-03-22T10:33:13.488Z,23.88
2023-03-22T10:35:44.027Z,25.00
2023-03-22T10:38:24.385Z,26.45
2023-03-22T10:40:57.014Z,24.63
2023-03-22T10:43:37.904Z,21.92
2023-03-22T10:46:11.128Z,22.73
2023-03-22T10:48:45.839Z,24.27
2023-03-22T10:51:34.383Z,22.15
2023-03-22T10:54:02.557Z,21.65
2023-03-22T10:56:29.409Z,21.73
2023-03-22T10:58:57.308Z,21.55
2023-03-22T11:01:33.519Z,23.60
2023-03-22T11:04:15.118Z,30.20
2023-03-22T11:06:56.110Z,23.35
2023-03-22T11:09:24.603Z,22.50
2023-03-22T11:12:00.781Z,21.75
2023-03-22T11:14:35.690Z,22.92
2023-03-22T11:17:12.616Z,23.30
2023-03-22T11:19:53.976Z,21.98
2023-03-22T11:22:35.676Z,22.23
2023-03-22T11:25:13.617Z,22.77
2023-03-22T11:28:17.453Z,23.00
2023-03-22T11:33:28.312Z,23.35
2023-03-22T11:35:59.301Z,24.30
2023-03-22T11:38:41.835Z,23.30
2023-03-22T11:41:22.653Z,22.50
2023-03-22T11:43:57.938Z,22.13
2023-03-22T11:46:25.552Z,20.15
2023-03-22T11:49:00.981Z,22.30
2023-03-22T11:51:46.636Z,21.00
2023-03-22T11:54:31.912Z,20.27
2023-03-22T11:57:03.850Z,20.17
2023-03-22T11:59:40.557Z,19.83
2023-03-22T12:02:31.238Z,19.08
2023-03-22T12:05:27.408Z,19.00
2023-03-22T12:08:13.410Z,19.50
2023-03-22T12:10:44.913Z,19.13
2023-03-22T12:13:31.367Z,17.98
2023-03-22T12:16:07.427Z,17.90
2023-03-22T12:18:50.428Z,16.92
2023-03-22T12:21:17.340Z,18.13
2023-03-22T12:23:44.349Z,18.55
2023-03-22T12:26:27.938Z,19.92
2023-03-22T12:29:15.468Z,18.30
2023-03-22T12:32:19.742Z,18.95
2023-03-22T12:34:54.926Z,19.40
2023-03-22T12:37:35.348Z,17.98
2023-03-22T12:40:16.307Z,18.35
2023-03-22T12:42:59.643Z,21.15
2023-03-22T12:45:31.689Z,18.70
2023-03-22T12:48:16.024Z,18.05
2023-03-22T12:51:02.061Z,17.95
2023-03-22T12:53:42.294Z,17.95
2023-03-22T12:56:17.728Z,19.33
2023-03-22T12:58:54.593Z,19.02
2023-03-22T13:01:39.565Z,18.25
2023-03-22T13:04:35.967Z,17.42
2023-03-22T13:07:30.491Z,17.33
2023-03-22T13:10:00.214Z,17.00
2023-03-22T13:12:32.142Z,17.13
2023-03-22T13:15:04.270Z,17.33
2023-03-22T13:17:33.465Z,13.45
2023-03-22T13:20:11.374Z,18.08
2023-03-22T13:22:38.254Z,18.10
2023-03-22T13:25:12.909Z,17.67
2023-03-22T13:27:45.950Z,17.10
2023-03-22T13:30:52.596Z,16.80
2023-03-22T13:33:32.870Z,17.75
2023-03-22T13:36:24.908Z,18.13
2023-03-22T13:38:59.347Z,17.77
2023-03-22T13:41:34.804Z,19.00
2023-03-22T13:44:26.866Z,17.52
2023-03-22T13:47:01.196Z,17.40
2023-03-22T13:49:49.572Z,17.83
2023-03-22T13:53:02.209Z,16.98
2023-03-22T13:55:51.814Z,17.23
2023-03-22T13:58:36.379Z,16.83
2023-03-22T14:01:13.173Z,16.27
2023-03-22T14:03:45.612Z,16.48
2023-03-22T14:06:28.769Z,23.38
2023-03-22T14:09:09.793Z,17.92
2023-03-22T14:11:54.826Z,18.13
2023-03-22T14:14:32.350Z,16.80
2023-03-22T14:17:13.139Z,17.25
2023-03-22T14:19:42.227Z,15.43
